Time;durP1;ratioP1;P1;durP2;ratioP2;P2;SDS_P1;SDS_P2;PMS_P1;PMS_P2;Temp;Humidity;BMP_temperature;BMP_pressure;BME280_temperature;BME280_humidity;BME280_pressure;Samples;Min_cycle;Max_cycle;Signal;HPM_P1;HPM_P2
2023/10/22 00:01:13;;;;;;;2.97;1.75;;;13.00;99.90;;;;;;5032854;28;20025;-83
2023/10/22 00:03:39;;;;;;;4.07;1.50;;;12.90;99.90;;;;;;5032550;28;20045;-84
2023/10/22 00:06:05;;;;;;;3.03;1.60;;;13.00;99.90;;;;;;5032236;28;20029;-84
2023/10/22 00:08:54;;;;;;;5.45;1.50;;;13.30;99.90;;;;;;5080488;27;20138;-85
2023/10/22 00:11:19;;;;;;;6.13;1.58;;;13.00;99.90;;;;;;5069489;28;20039;-83
2023/10/22 00:13:45;;;;;;;3.70;1.30;;;13.00;99.90;;;;;;5068980;28;20423;-84
2023/10/22 00:16:10;;;;;;;5.47;1.70;;;13.00;99.90;;;;;;5069176;28;20465;-83
2023/10/22 00:18:36;;;;;;;4.88;1.65;;;14.10;99.90;;;;;;5068292;28;20021;-84
2023/10/22 00:21:06;;;;;;;3.60;1.42;;;13.10;99.90;;;;;;5069228;28;20379;-84
2023/10/22 00:23:32;;;;;;;2.95;1.67;;;13.20;99.90;;;;;;5069198;28;20079;-83
2023/10/22 00:25:57;;;;;;;2.90;1.30;;;13.10;99.90;;;;;;5068734;28;20021;-84
2023/10/22 00:28:23;;;;;;;6.13;1.20;;;13.10;99.90;;;;;;5074487;28;20028;-83
2023/10/22 00:30:48;;;;;;;6.38;2.05;;;13.10;99.90;;;;;;5070862;28;20035;-83
2023/10/22 00:33:14;;;;;;;3.38;1.40;;;13.10;99.90;;;;;;5088073;28;20420;-83
2023/10/22 00:35:39;;;;;;;4.07;1.80;;;13.10;99.90;;;;;;5088357;28;20033;-84
2023/10/22 00:38:05;;;;;;;4.50;1.40;;;13.30;99.90;;;;;;5089250;28;20024;-83
2023/10/22 00:40:31;;;;;;;5.90;1.75;;;13.90;99.90;;;;;;5088518;28;20032;-84
2023/10/22 00:42:57;;;;;;;4.75;1.70;;;13.20;99.90;;;;;;5088999;28;20032;-83
2023/10/22 00:45:22;;;;;;;4.68;1.55;;;13.20;99.90;;;;;;5088969;28;20385;-84
2023/10/22 00:47:48;;;;;;;5.72;1.95;;;13.20;99.90;;;;;;5087656;28;20472;-82
2023/10/22 00:50:14;;;;;;;4.20;1.63;;;13.20;99.90;;;;;;5088880;28;20020;-83
2023/10/22 00:52:40;;;;;;;6.60;1.50;;;13.10;99.90;;;;;;5073698;28;20126;-84
2023/10/22 00:55:11;;;;;;;3.95;1.52;;;13.10;99.90;;;;;;5087369;28;20020;-83
2023/10/22 00:57:37;;;;;;;2.63;1.45;;;13.10;99.90;;;;;;5088201;28;20552;-83
2023/10/22 01:00:04;;;;;;;6.30;1.13;;;13.10;99.90;;;;;;5087837;28;20036;-84
2023/10/22 01:02:29;;;;;;;5.82;1.65;;;13.10;99.90;;;;;;5088699;28;20107;-83
2023/10/22 01:04:55;;;;;;;4.68;1.58;;;13.10;99.90;;;;;;5088783;28;20099;-84
2023/10/22 01:07:20;;;;;;;5.70;1.60;;;13.10;99.90;;;;;;5087781;28;20770;-83
2023/10/22 01:09:46;;;;;;;3.00;1.98;;;13.10;99.90;;;;;;5088540;28;20024;-83
2023/10/22 01:12:11;;;;;;;3.40;1.40;;;13.00;99.90;;;;;;5086928;28;20024;-83
2023/10/22 01:14:37;;;;;;;3.42;1.90;;;13.00;99.90;;;;;;5073549;28;20039;-83
2023/10/22 01:17:02;;;;;;;5.10;1.70;;;13.00;99.90;;;;;;5087786;28;20054;-83
2023/10/22 01:19:28;;;;;;;3.47;1.73;;;13.00;99.90;;;;;;5077875;28;20047;-83
2023/10/22 01:21:53;;;;;;;2.05;1.50;;;13.00;99.90;;;;;;5069774;28;20028;-83
2023/10/22 01:24:19;;;;;;;2.28;1.13;;;13.00;99.90;;;;;;5066716;28;20487;-84
2023/10/22 01:26:45;;;;;;;2.40;1.10;;;12.90;99.90;;;;;;5074759;28;20042;-84
2023/10/22 01:29:11;;;;;;;1.70;1.05;;;12.90;99.90;;;;;;5073767;28;20439;-83
2023/10/22 01:31:37;;;;;;;2.95;1.33;;;12.90;99.90;;;;;;5074216;28;20028;-83
2023/10/22 01:34:03;;;;;;;1.92;1.00;;;12.90;99.90;;;;;;5064231;28;20054;-83
2023/10/22 01:36:29;;;;;;;3.25;1.00;;;13.50;99.90;;;;;;5057934;28;20047;-84
2023/10/22 01:38:55;;;;;;;1.52;1.08;;;12.90;99.90;;;;;;5054243;28;20021;-84
2023/10/22 01:41:20;;;;;;;2.15;0.95;;;12.90;99.90;;;;;;5054187;28;20055;-84
2023/10/22 01:43:46;;;;;;;0.85;0.85;;;12.90;99.90;;;;;;5053594;28;20017;-85
2023/10/22 01:46:12;;;;;;;2.28;0.93;;;12.90;99.90;;;;;;5054636;28;20546;-84
2023/10/22 01:48:38;;;;;;;4.90;0.90;;;12.90;99.90;;;;;;5054112;28;20040;-84
2023/10/22 01:51:04;;;;;;;1.20;0.70;;;12.90;99.90;;;;;;5053771;28;20029;-82
2023/10/22 01:53:29;;;;;;;1.20;0.90;;;12.90;99.90;;;;;;5055390;28;20024;-82
2023/10/22 01:55:55;;;;;;;1.15;0.85;;;12.90;99.90;;;;;;5061672;28;20468;-83
2023/10/22 01:58:21;;;;;;;3.35;0.75;;;12.90;99.90;;;;;;5072962;28;20031;-83
2023/10/22 02:00:47;;;;;;;1.25;0.82;;;12.90;99.90;;;;;;5073362;28;20025;-82
2023/10/22 02:03:13;;;;;;;1.95;1.13;;;12.90;99.90;;;;;;5053474;28;20595;-85
2023/10/22 02:05:39;;;;;;;1.20;1.10;;;12.90;99.90;;;;;;5052471;28;20029;-85
2023/10/22 02:08:06;;;;;;;1.13;0.93;;;13.60;99.90;;;;;;5053447;28;20072;-84
2023/10/22 02:10:32;;;;;;;1.50;0.93;;;12.90;99.90;;;;;;5052722;28;20029;-83
2023/10/22 02:12:57;;;;;;;1.50;0.88;;;12.90;99.90;;;;;;5053639;28;20070;-85
2023/10/22 02:15:25;;;;;;;1.08;0.95;;;13.10;99.90;;;;;;5056089;28;20047;-84
2023/10/22 02:17:50;;;;;;;0.95;0.70;;;12.90;99.90;;;;;;5064100;28;20064;-84
2023/10/22 02:20:16;;;;;;;0.70;0.50;;;12.90;99.90;;;;;;5073923;28;20044;-84
2023/10/22 02:22:41;;;;;;;2.97;0.40;;;12.90;99.90;;;;;;5073274;28;20028;-84
2023/10/22 02:25:07;;;;;;;1.15;0.57;;;12.80;99.90;;;;;;5072925;28;20032;-84
2023/10/22 02:27:33;;;;;;;1.55;0.60;;;13.40;99.90;;;;;;5073328;28;20028;-84
2023/10/22 02:29:59;;;;;;;1.88;0.57;;;12.80;99.90;;;;;;5072647;28;20028;-84
2023/10/22 02:32:25;;;;;;;2.97;1.10;;;12.80;99.90;;;;;;5072647;28;20066;-84
2023/10/22 02:34:52;;;;;;;1.30;0.90;;;12.80;99.90;;;;;;5073139;28;20102;-84
2023/10/22 02:37:18;;;;;;;1.08;1.00;;;12.80;99.90;;;;;;5069186;28;20423;-84
2023/10/22 02:39:43;;;;;;;2.10;1.00;;;12.80;99.90;;;;;;5061533;28;20031;-83
2023/10/22 02:42:09;;;;;;;1.25;1.13;;;12.80;99.90;;;;;;5073323;28;20024;-83
2023/10/22 02:44:34;;;;;;;3.70;1.55;;;12.80;99.90;;;;;;5072780;28;20487;-83
2023/10/22 02:47:01;;;;;;;8.43;2.08;;;12.80;99.90;;;;;;5072107;28;20396;-84
2023/10/22 02:49:26;;;;;;;2.47;1.80;;;12.80;99.90;;;;;;5073299;28;20052;-84
2023/10/22 02:51:52;;;;;;;5.97;2.92;;;12.70;99.90;;;;;;5072857;28;20055;-85
2023/10/22 02:54:18;;;;;;;4.50;1.90;;;12.70;99.90;;;;;;5072660;28;20020;-85
2023/10/22 02:56:43;;;;;;;2.30;1.50;;;12.60;99.90;;;;;;5072780;28;20043;-84
2023/10/22 02:59:09;;;;;;;2.90;1.40;;;12.60;99.90;;;;;;5062375;28;20214;-84
2023/10/22 03:01:35;;;;;;;3.17;1.77;;;12.50;99.90;;;;;;5068620;28;20029;-84
2023/10/22 03:04:01;;;;;;;5.13;1.90;;;12.50;99.90;;;;;;5072639;28;20098;-84
2023/10/22 03:06:27;;;;;;;3.33;2.08;;;12.40;99.90;;;;;;5073199;28;20033;-84
2023/10/22 03:08:52;;;;;;;2.85;2.25;;;12.40;99.90;;;;;;5071872;28;20028;-84
2023/10/22 03:11:19;;;;;;;12.05;2.85;;;12.30;99.90;;;;;;5072742;28;20468;-84
2023/10/22 03:13:49;;;;;;;7.55;2.67;;;12.20;99.90;;;;;;5071234;28;20025;-84
2023/10/22 03:16:15;;;;;;;4.43;2.88;;;12.20;99.90;;;;;;5072617;28;20024;-84
2023/10/22 03:18:41;;;;;;;9.82;2.95;;;12.10;99.90;;;;;;5065169;28;20055;-84
2023/10/22 03:21:18;;;;;;;12.05;3.92;;;12.10;99.90;;;;;;5064211;28;20028;-84
2023/10/22 03:23:44;;;;;;;9.40;3.58;;;12.10;99.90;;;;;;5072143;28;20415;-85
2023/10/22 03:26:16;;;;;;;7.50;3.85;;;12.50;99.90;;;;;;5072122;28;20021;-83
2023/10/22 03:28:42;;;;;;;7.15;3.22;;;12.10;99.90;;;;;;5071588;28;20115;-84
2023/10/22 03:31:08;;;;;;;7.35;3.10;;;12.10;99.90;;;;;;5072295;28;20079;-84
2023/10/22 03:33:34;;;;;;;8.15;2.95;;;12.10;99.90;;;;;;5071783;28;20473;-84
2023/10/22 03:36:01;;;;;;;12.95;3.60;;;12.10;99.90;;;;;;5071065;28;20024;-84
2023/10/22 03:38:27;;;;;;;3.63;2.38;;;12.00;99.90;;;;;;5072118;28;20077;-84
2023/10/22 03:41:00;;;;;;;13.18;3.58;;;12.00;99.90;;;;;;5065942;28;20111;-84
2023/10/22 03:43:28;;;;;;;6.20;2.70;;;12.10;99.90;;;;;;5064624;28;20021;-84
2023/10/22 03:45:57;;;;;;;3.42;3.05;;;12.00;99.90;;;;;;5071838;28;20388;-84
2023/10/22 03:48:23;;;;;;;7.93;3.35;;;12.10;99.90;;;;;;5072286;28;20047;-84
2023/10/22 03:50:49;;;;;;;7.25;2.45;;;12.10;99.90;;;;;;5071219;28;20415;-84
2023/10/22 03:53:14;;;;;;;4.60;3.00;;;12.20;99.90;;;;;;5071685;28;20041;-84
2023/10/22 03:55:40;;;;;;;7.28;2.47;;;12.20;99.90;;;;;;5071960;28;20033;-84
2023/10/22 03:58:06;;;;;;;6.05;2.63;;;12.20;99.90;;;;;;5071763;28;20427;-84
2023/10/22 04:00:32;;;;;;;11.68;2.15;;;12.40;99.90;;;;;;5071999;28;20025;-84
2023/10/22 04:02:58;;;;;;;3.33;1.73;;;12.30;99.90;;;;;;5065490;28;20025;-85
2023/10/22 04:05:23;;;;;;;7.30;2.30;;;12.30;99.90;;;;;;5063911;28;20029;-84
2023/10/22 04:07:49;;;;;;;4.25;2.33;;;12.30;99.90;;;;;;5071408;28;20056;-84
2023/10/22 04:10:15;;;;;;;6.15;2.50;;;12.40;99.90;;;;;;5071285;28;20021;-85
2023/10/22 04:12:41;;;;;;;2.92;2.00;;;12.50;99.90;;;;;;5071683;28;20035;-84
2023/10/22 04:15:08;;;;;;;5.57;2.08;;;12.50;99.90;;;;;;5071538;28;20428;-84
2023/10/22 04:17:33;;;;;;;3.78;1.80;;;12.50;99.90;;;;;;5070825;28;20024;-84
2023/10/22 04:19:59;;;;;;;3.55;1.85;;;12.60;99.90;;;;;;5071480;28;20430;-84
2023/10/22 04:22:24;;;;;;;7.07;1.77;;;12.50;99.90;;;;;;5071746;28;20028;-85
2023/10/22 04:24:50;;;;;;;4.43;1.83;;;12.50;99.90;;;;;;5060949;28;20037;-84
2023/10/22 04:27:15;;;;;;;7.30;2.20;;;12.50;99.90;;;;;;5053851;28;20488;-84
2023/10/22 04:29:43;;;;;;;5.40;2.75;;;12.50;99.90;;;;;;5051466;28;20380;-82
2023/10/22 04:32:10;;;;;;;4.90;2.65;;;12.60;99.90;;;;;;5047557;28;20033;-84
2023/10/22 04:34:36;;;;;;;7.65;2.95;;;12.20;99.90;;;;;;5051328;28;20032;-83
2023/10/22 04:37:04;;;;;;;7.13;3.28;;;12.40;99.90;;;;;;5050782;28;20404;-82
2023/10/22 04:39:30;;;;;;;8.75;2.85;;;12.40;99.90;;;;;;5050163;28;20029;-84
2023/10/22 04:41:55;;;;;;;6.40;2.95;;;12.80;99.90;;;;;;5051213;28;20035;-83
2023/10/22 04:44:22;;;;;;;9.05;3.38;;;12.30;99.90;;;;;;5053183;28;20026;-84
2023/10/22 04:46:48;;;;;;;4.53;2.47;;;12.30;99.90;;;;;;5060078;28;20025;-84
2023/10/22 04:49:13;;;;;;;9.23;3.25;;;12.30;99.90;;;;;;5071555;28;20052;-83
2023/10/22 04:51:39;;;;;;;7.10;2.85;;;12.30;99.90;;;;;;5071354;28;20051;-83
2023/10/22 04:54:05;;;;;;;3.83;2.40;;;12.30;99.90;;;;;;5072808;28;20099;-83
2023/10/22 04:56:32;;;;;;;12.13;3.15;;;12.30;99.90;;;;;;5075505;28;20024;-84
2023/10/22 04:58:57;;;;;;;5.70;2.83;;;12.30;99.90;;;;;;5075500;28;20029;-84
2023/10/22 05:01:23;;;;;;;5.10;2.92;;;12.50;99.90;;;;;;5074982;28;20446;-84
2023/10/22 05:03:48;;;;;;;3.67;2.42;;;12.40;99.90;;;;;;5074885;28;20033;-84
2023/10/22 05:06:14;;;;;;;8.85;2.88;;;12.40;99.90;;;;;;5071034;28;20024;-84
2023/10/22 05:08:40;;;;;;;6.53;2.63;;;12.40;99.90;;;;;;5063029;28;20078;-84
2023/10/22 05:11:11;;;;;;;7.15;2.72;;;12.40;99.90;;;;;;5075111;28;20102;-84
2023/10/22 05:13:36;;;;;;;5.22;3.20;;;12.90;99.90;;;;;;5074034;28;20024;-83
2023/10/22 05:16:02;;;;;;;5.10;2.45;;;12.40;99.90;;;;;;5075696;28;20024;-84
2023/10/22 05:18:28;;;;;;;3.63;2.85;;;12.40;99.90;;;;;;5066193;28;20025;-84
2023/10/22 05:21:00;;;;;;;4.05;2.38;;;12.40;99.90;;;;;;5060251;28;20025;-84
2023/10/22 05:23:26;;;;;;;9.27;2.47;;;12.50;99.90;;;;;;5050541;28;20029;-82
2023/10/22 05:26:03;;;;;;;5.50;2.78;;;12.50;99.90;;;;;;5052494;28;20029;-83
2023/10/22 05:28:28;;;;;;;2.83;2.60;;;12.50;99.90;;;;;;5052217;28;20040;-83
2023/10/22 05:30:54;;;;;;;3.78;1.92;;;12.60;99.90;;;;;;5056921;28;20036;-83
2023/10/22 05:33:19;;;;;;;2.63;1.88;;;12.60;99.90;;;;;;5054274;28;20032;-83
2023/10/22 05:35:45;;;;;;;4.28;2.20;;;13.20;99.90;;;;;;5051660;28;20017;-83
2023/10/22 05:38:10;;;;;;;8.68;2.10;;;12.60;99.90;;;;;;5052353;28;20051;-83
2023/10/22 05:40:37;;;;;;;5.85;2.25;;;12.60;99.90;;;;;;5052980;28;20066;-85
2023/10/22 05:43:03;;;;;;;3.03;2.00;;;12.60;99.90;;;;;;5053165;28;20033;-84
2023/10/22 05:45:28;;;;;;;3.17;2.40;;;12.60;99.90;;;;;;5053956;28;20419;-83
2023/10/22 05:47:54;;;;;;;7.18;2.67;;;13.10;99.90;;;;;;5053059;28;20029;-85
2023/10/22 05:50:19;;;;;;;5.13;3.13;;;12.60;99.90;;;;;;5049356;28;20113;-84
2023/10/22 05:52:45;;;;;;;8.02;3.72;;;13.00;99.90;;;;;;5053562;28;20037;-84
2023/10/22 05:55:13;;;;;;;8.48;4.63;;;12.60;99.90;;;;;;5055217;28;20020;-84
2023/10/22 05:57:39;;;;;;;6.07;4.25;;;13.10;99.90;;;;;;5052191;28;20025;-84
2023/10/22 06:00:07;;;;;;;9.70;4.35;;;12.60;99.90;;;;;;5052855;28;20025;-84
2023/10/22 06:02:33;;;;;;;5.88;4.32;;;12.60;99.90;;;;;;5052080;28;20357;-84
2023/10/22 06:04:59;;;;;;;10.38;4.30;;;12.50;99.90;;;;;;5056082;28;20075;-85
2023/10/22 06:07:24;;;;;;;5.53;4.47;;;12.50;99.90;;;;;;5052777;28;20455;-84
2023/10/22 06:09:50;;;;;;;8.18;4.53;;;12.50;99.90;;;;;;5051653;28;20025;-84
2023/10/22 06:12:16;;;;;;;8.57;5.43;;;12.60;99.90;;;;;;5052647;28;20024;-84
2023/10/22 06:14:41;;;;;;;5.05;4.22;;;12.60;99.90;;;;;;5052081;28;20469;-83
2023/10/22 06:17:07;;;;;;;8.65;4.05;;;12.50;99.90;;;;;;5055224;28;20031;-83
2023/10/22 06:19:33;;;;;;;5.55;3.90;;;12.50;99.90;;;;;;5056142;28;20053;-82
2023/10/22 06:21:58;;;;;;;5.88;4.15;;;12.50;99.90;;;;;;5052468;28;20063;-84
2023/10/22 06:24:24;;;;;;;8.68;4.25;;;12.50;99.90;;;;;;5055578;28;20421;-84
2023/10/22 06:26:50;;;;;;;4.57;3.95;;;12.50;99.90;;;;;;5054442;28;20556;-84
2023/10/22 06:29:15;;;;;;;8.40;3.97;;;12.50;99.90;;;;;;5053589;28;20029;-84
2023/10/22 06:31:42;;;;;;;9.40;4.05;;;12.50;99.90;;;;;;5048924;28;20049;-84
2023/10/22 06:34:07;;;;;;;9.93;3.92;;;12.30;99.90;;;;;;5051733;28;20477;-85
2023/10/22 06:36:33;;;;;;;11.45;4.05;;;12.40;99.90;;;;;;5054818;28;20024;-84
2023/10/22 06:38:58;;;;;;;5.50;4.18;;;12.40;99.90;;;;;;5051594;28;20042;-85
2023/10/22 06:41:25;;;;;;;6.47;3.58;;;12.40;99.90;;;;;;5055632;28;20116;-84
2023/10/22 06:43:51;;;;;;;4.35;3.67;;;12.40;99.90;;;;;;5054040;28;20382;-84
2023/10/22 06:46:17;;;;;;;6.43;3.92;;;12.30;99.90;;;;;;5051572;28;20017;-84
2023/10/22 06:48:43;;;;;;;10.60;4.95;;;12.30;99.90;;;;;;5055653;28;20037;-84
2023/10/22 06:51:15;;;;;;;11.07;5.22;;;12.30;99.90;;;;;;5051656;28;20028;-84
2023/10/22 06:53:42;;;;;;;8.20;4.13;;;12.30;99.90;;;;;;5055504;28;20043;-84
2023/10/22 06:56:08;;;;;;;8.35;4.00;;;12.30;99.90;;;;;;5051917;28;20075;-84
2023/10/22 06:58:34;;;;;;;7.63;4.53;;;12.30;99.90;;;;;;5053508;28;20082;-85
2023/10/22 07:01:04;;;;;;;6.95;3.53;;;13.10;99.90;;;;;;5049817;28;20479;-84
2023/10/22 07:03:29;;;;;;;7.63;3.38;;;12.20;99.90;;;;;;5049636;28;20048;-83
2023/10/22 07:05:55;;;;;;;11.13;3.65;;;12.20;99.90;;;;;;5050468;28;20464;-83
2023/10/22 07:08:20;;;;;;;7.68;3.38;;;12.20;99.90;;;;;;5051533;28;20504;-83
2023/10/22 07:10:46;;;;;;;5.13;2.97;;;12.20;99.90;;;;;;5051026;28;20025;-83
2023/10/22 07:13:11;;;;;;;6.43;3.03;;;12.20;99.90;;;;;;5050000;28;20059;-83
2023/10/22 07:15:49;;;;;;;3.80;2.40;;;12.30;99.90;;;;;;5050764;28;20104;-83
2023/10/22 07:18:27;;;;;;;7.93;2.88;;;12.90;99.90;;;;;;5054887;28;20074;-83
2023/10/22 07:20:52;;;;;;;4.45;2.58;;;11.80;99.90;;;;;;5052699;28;20029;-83
2023/10/22 07:23:18;;;;;;;10.75;3.40;;;12.10;99.90;;;;;;5051292;28;20086;-83
2023/10/22 07:25:44;;;;;;;12.82;3.35;;;12.30;99.90;;;;;;5050711;28;20031;-84
2023/10/22 07:28:12;;;;;;;5.53;4.22;;;12.20;99.90;;;;;;5052888;28;20032;-84
2023/10/22 07:30:37;;;;;;;4.45;3.20;;;12.30;99.90;;;;;;5055706;28;20070;-84
2023/10/22 07:33:03;;;;;;;9.75;4.53;;;12.30;99.90;;;;;;5059635;28;20051;-86
2023/10/22 07:35:28;;;;;;;6.40;3.67;;;12.30;99.90;;;;;;5057899;28;20025;-88
2023/10/22 07:37:54;;;;;;;4.53;3.58;;;12.30;99.90;;;;;;5065869;28;20028;-86
2023/10/22 07:40:20;;;;;;;4.47;3.95;;;12.90;99.90;;;;;;5061689;28;20083;-84
2023/10/22 07:42:48;;;;;;;8.00;3.28;;;12.30;99.90;;;;;;5064254;28;20099;-84
2023/10/22 07:45:13;;;;;;;8.57;3.70;;;12.30;99.90;;;;;;5072710;28;20047;-85
2023/10/22 07:47:39;;;;;;;11.90;3.95;;;12.30;99.90;;;;;;5062836;28;20421;-86
2023/10/22 07:50:05;;;;;;;8.18;3.67;;;12.40;99.90;;;;;;5051644;28;20123;-85
2023/10/22 07:52:32;;;;;;;4.68;3.17;;;12.40;99.90;;;;;;5052167;28;20123;-85
2023/10/22 07:54:58;;;;;;;6.93;3.25;;;12.40;99.90;;;;;;5051915;28;20112;-85
2023/10/22 07:57:26;;;;;;;9.52;3.45;;;12.40;99.90;;;;;;5050403;28;20040;-85
2023/10/22 07:59:52;;;;;;;6.38;3.00;;;12.40;99.90;;;;;;5046121;28;20067;-84
2023/10/22 08:02:18;;;;;;;9.07;3.25;;;12.40;99.90;;;;;;5066591;28;20445;-85
2023/10/22 08:04:43;;;;;;;7.65;3.75;;;12.40;99.90;;;;;;5061473;28;20155;-84
2023/10/22 08:07:09;;;;;;;7.97;2.58;;;12.40;99.90;;;;;;5037300;28;20091;-85
2023/10/22 08:09:34;;;;;;;8.57;3.70;;;12.40;99.90;;;;;;5053241;28;20041;-86
2023/10/22 08:12:00;;;;;;;5.45;3.22;;;12.30;99.90;;;;;;5050531;28;20098;-87
2023/10/22 08:14:26;;;;;;;8.30;3.53;;;12.40;99.90;;;;;;5052326;28;20094;-87
2023/10/22 08:16:51;;;;;;;8.07;3.67;;;12.70;99.90;;;;;;5051243;28;20029;-84
2023/10/22 08:19:17;;;;;;;7.78;3.28;;;12.40;99.90;;;;;;5051973;28;20462;-88
2023/10/22 08:21:42;;;;;;;8.90;3.47;;;14.00;99.90;;;;;;5050273;28;20124;-86
2023/10/22 08:24:20;;;;;;;7.18;3.65;;;12.50;99.90;;;;;;5050980;28;20112;-89
2023/10/22 08:26:46;;;;;;;6.32;3.50;;;13.80;99.90;;;;;;5070727;28;20020;-86
2023/10/22 08:29:11;;;;;;;6.78;4.07;;;12.50;99.90;;;;;;5070231;28;20074;-84
2023/10/22 08:31:37;;;;;;;6.25;3.42;;;12.50;99.90;;;;;;5053402;28;20081;-87
2023/10/22 08:34:03;;;;;;;6.32;3.15;;;12.60;99.90;;;;;;5054839;28;20032;-87
2023/10/22 08:36:41;;;;;;;9.60;3.35;;;12.60;99.90;;;;;;5054863;28;20035;-84
2023/10/22 08:39:08;;;;;;;7.47;3.50;;;12.90;99.90;;;;;;5055600;28;20043;-86
2023/10/22 08:41:47;;;;;;;10.05;4.07;;;12.40;99.90;;;;;;5056022;28;20411;-88
2023/10/22 08:44:15;;;;;;;4.03;3.05;;;12.70;99.90;;;;;;5058445;28;20029;-87
2023/10/22 08:49:27;;;;;;;7.35;3.13;;;12.70;99.90;;;;;;5057219;28;20048;-88
2023/10/22 08:51:52;;;;;;;11.95;3.22;;;14.20;99.90;;;;;;5055108;28;20087;-86
2023/10/22 08:54:33;;;;;;;5.20;3.00;;;12.30;99.90;;;;;;5060961;28;20460;-88
2023/10/22 08:56:59;;;;;;;5.60;3.40;;;12.50;99.90;;;;;;5075869;28;20039;-85
2023/10/22 08:59:26;;;;;;;5.88;3.25;;;12.70;99.90;;;;;;5075611;28;20586;-85
2023/10/22 09:01:52;;;;;;;9.45;3.10;;;12.70;99.90;;;;;;5076280;28;20078;-86
2023/10/22 09:04:18;;;;;;;12.15;3.38;;;12.70;99.90;;;;;;5066180;28;20534;-87
2023/10/22 09:06:45;;;;;;;5.65;2.85;;;12.80;99.90;;;;;;5055802;28;22251;-85
2023/10/22 09:09:30;;;;;;;7.80;2.90;;;12.80;99.90;;;;;;5055695;28;20037;-86
2023/10/22 09:11:56;;;;;;;6.60;2.90;;;12.80;99.90;;;;;;5055242;28;20021;-85
2023/10/22 09:14:23;;;;;;;6.07;3.03;;;12.80;99.90;;;;;;5054765;28;20068;-88
2023/10/22 09:16:49;;;;;;;8.85;2.97;;;12.80;99.90;;;;;;5055795;28;20040;-85
2023/10/22 09:19:33;;;;;;;6.90;2.53;;;12.90;99.90;;;;;;5055166;28;20059;-85
2023/10/22 09:21:59;;;;;;;6.78;2.70;;;12.90;99.90;;;;;;5055674;28;20079;-87
2023/10/22 09:24:25;;;;;;;8.60;2.60;;;12.90;99.90;;;;;;5053811;28;20370;-85
2023/10/22 09:26:50;;;;;;;5.95;2.45;;;12.90;99.90;;;;;;5067244;28;20068;-85
2023/10/22 09:29:16;;;;;;;5.75;2.17;;;13.00;99.90;;;;;;5075637;28;20031;-86
2023/10/22 09:32:00;;;;;;;3.00;2.13;;;13.00;99.90;;;;;;5076218;28;20460;-88
2023/10/22 09:34:30;;;;;;;5.40;2.50;;;12.90;99.90;;;;;;5069738;28;20052;-87
2023/10/22 09:36:56;;;;;;;;;;;13.00;99.90;;;;;;5070121;28;20036;-88
2023/10/22 09:39:36;;;;;;;7.00;2.20;;;13.10;99.90;;;;;;5075625;28;19905;-86
2023/10/22 09:42:04;;;;;;;5.87;2.37;;;13.10;99.90;;;;;;5075175;28;20031;-85
2023/10/22 09:44:31;;;;;;;7.40;2.10;;;13.10;99.90;;;;;;5063949;28;20061;-88
2023/10/22 09:47:00;;;;;;;4.05;2.10;;;14.10;99.90;;;;;;5064606;28;20142;-89
2023/10/22 09:49:32;;;;;;;4.13;2.03;;;13.10;99.90;;;;;;5055381;28;20054;-90
2023/10/22 09:51:59;;;;;;;6.45;2.28;;;13.10;99.90;;;;;;5047217;28;20109;-89
2023/10/22 09:54:34;;;;;;;7.47;2.28;;;13.40;99.90;;;;;;5059005;28;20024;-89
2023/10/22 09:57:06;;;;;;;4.60;2.40;;;13.10;99.90;;;;;;5061700;28;20032;-89
2023/10/22 09:59:33;;;;;;;10.43;2.53;;;13.10;99.90;;;;;;5062074;28;20033;-90
2023/10/22 10:01:59;;;;;;;4.97;2.03;;;13.70;99.90;;;;;;5055610;28;20049;-88
2023/10/22 10:04:26;;;;;;;11.15;3.20;;;13.20;99.90;;;;;;5058040;28;20048;-88
2023/10/22 10:06:53;;;;;;;7.45;2.85;;;13.30;99.90;;;;;;5059946;28;20049;-89
2023/10/22 10:09:20;;;;;;;3.40;2.70;;;13.20;99.90;;;;;;5057779;28;20029;-90
2023/10/22 10:11:47;;;;;;;9.82;2.78;;;13.20;99.90;;;;;;5056658;28;20029;-90
2023/10/22 10:14:35;;;;;;;3.35;2.42;;;13.20;99.90;;;;;;5054358;28;20116;-88
2023/10/22 10:17:01;;;;;;;7.30;2.10;;;13.20;99.90;;;;;;5050641;28;20029;-88
2023/10/22 10:19:26;;;;;;;9.23;2.42;;;13.20;99.90;;;;;;5061855;28;20503;-88
2023/10/22 10:21:53;;;;;;;3.50;2.42;;;13.20;99.90;;;;;;5061215;28;20020;-88
2023/10/22 10:24:23;;;;;;;4.68;1.88;;;13.30;99.90;;;;;;5053931;28;20527;-86
2023/10/22 10:27:11;;;;;;;;;;;13.30;99.90;;;;;;5053733;28;20017;-87
2023/10/22 10:29:37;;;;;;;4.57;2.25;;;13.40;99.90;;;;;;5051169;28;19908;-88
2023/10/22 10:32:15;;;;;;;7.78;2.22;;;13.40;99.90;;;;;;5053427;28;20045;-88
2023/10/22 10:34:43;;;;;;;3.75;1.55;;;13.60;99.90;;;;;;5052704;28;20029;-88
2023/10/22 10:37:22;;;;;;;4.57;1.73;;;13.50;99.90;;;;;;5057886;28;20029;-89
2023/10/22 10:39:48;;;;;;;2.25;1.52;;;13.50;99.90;;;;;;5052763;28;20033;-87
2023/10/22 10:42:30;;;;;;;1.52;1.42;;;13.50;99.90;;;;;;5053494;28;20025;-88
2023/10/22 10:44:59;;;;;;;4.55;1.80;;;13.50;99.90;;;;;;5051659;28;20528;-87
2023/10/22 10:47:24;;;;;;;2.30;1.67;;;13.60;99.90;;;;;;5053744;28;20051;-87
2023/10/22 10:50:03;;;;;;;3.42;1.98;;;13.60;99.90;;;;;;5050981;28;20035;-87
2023/10/22 10:52:31;;;;;;;1.60;1.50;;;13.60;99.90;;;;;;5051887;28;20021;-89
2023/10/22 10:54:58;;;;;;;3.97;1.52;;;13.60;99.90;;;;;;5055149;28;20048;-90
2023/10/22 10:57:41;;;;;;;7.32;1.67;;;14.50;99.90;;;;;;5057146;28;20035;-86
2023/10/22 11:00:09;;;;;;;4.30;1.52;;;13.60;99.90;;;;;;5052776;28;20029;-87
2023/10/22 11:02:45;;;;;;;4.18;1.60;;;13.60;99.90;;;;;;5052866;28;20024;-85
2023/10/22 11:05:10;;;;;;;3.92;1.10;;;13.70;99.90;;;;;;5058621;28;20033;-86
2023/10/22 11:07:37;;;;;;;7.95;1.65;;;13.70;99.90;;;;;;5072795;28;20374;-86
2023/10/22 11:10:16;;;;;;;5.25;2.45;;;13.70;99.90;;;;;;5068251;28;20028;-86
2023/10/22 11:12:44;;;;;;;4.75;1.52;;;13.70;99.90;;;;;;5066872;28;20025;-85
2023/10/22 11:15:11;;;;;;;4.70;1.90;;;13.70;99.90;;;;;;5052772;28;20044;-85
2023/10/22 11:17:38;;;;;;;2.03;0.80;;;13.70;99.90;;;;;;5052916;28;20091;-87
2023/10/22 11:20:05;;;;;;;2.10;1.10;;;13.70;99.90;;;;;;5053665;28;20029;-92
2023/10/22 11:22:31;;;;;;;1.73;1.08;;;13.80;99.90;;;;;;5053627;28;20496;-86
2023/10/22 11:25:00;;;;;;;3.13;1.10;;;13.80;99.90;;;;;;5051008;28;20028;-87
2023/10/22 11:27:27;;;;;;;4.57;1.20;;;13.80;99.90;;;;;;5050654;28;20041;-87
2023/10/22 11:29:52;;;;;;;7.57;1.75;;;13.80;99.90;;;;;;5042892;28;20033;-88
2023/10/22 11:32:21;;;;;;;3.00;1.17;;;13.80;99.90;;;;;;5048387;28;20017;-88
2023/10/22 11:35:08;;;;;;;3.95;1.08;;;13.90;99.90;;;;;;5044333;22;20111;-88
2023/10/22 11:37:57;;;;;;;3.65;1.15;;;13.90;99.90;;;;;;5008197;28;20393;-88
2023/10/22 11:40:41;;;;;;;2.30;0.93;;;13.90;99.90;;;;;;5015626;28;20028;-85
2023/10/22 11:43:15;;;;;;;4.63;0.90;;;14.00;99.90;;;;;;5015108;28;20520;-88
2023/10/22 11:46:00;;;;;;;2.30;0.70;;;15.00;99.90;;;;;;5016231;28;20175;-89
2023/10/22 11:48:29;;;;;;;2.40;0.98;;;15.40;99.90;;;;;;5025725;28;20037;-88
2023/10/22 11:51:07;;;;;;;2.85;0.77;;;14.60;99.90;;;;;;5030898;28;20013;-88
2023/10/22 11:53:43;;;;;;;5.57;1.38;;;15.70;99.90;;;;;;5026857;28;20449;-88
2023/10/22 11:56:24;;;;;;;2.78;1.05;;;14.60;99.90;;;;;;5015209;28;20025;-89
2023/10/22 11:58:55;;;;;;;;;;;15.80;99.90;;;;;;5033406;28;20083;-87
2023/10/22 12:01:22;;;;;;;2.35;0.82;;;14.20;99.90;;;;;;5018851;28;20025;-88
2023/10/22 12:03:47;;;;;;;3.47;0.95;;;14.20;99.90;;;;;;5034212;28;20072;-88
2023/10/22 12:06:31;;;;;;;5.00;1.10;;;15.50;99.90;;;;;;5026816;28;20033;-88
2023/10/22 12:08:56;;;;;;;2.08;0.90;;;14.30;99.90;;;;;;5014041;28;20038;-89
2023/10/22 12:11:41;;;;;;;2.55;1.20;;;15.60;99.90;;;;;;5022487;28;20084;-86
2023/10/22 12:14:06;;;;;;;1.70;1.00;;;14.60;99.90;;;;;;5010214;28;20057;-88
2023/10/22 12:16:50;;;;;;;1.80;1.10;;;15.70;99.90;;;;;;5012189;28;20022;-85
2023/10/22 12:19:15;;;;;;;2.58;0.90;;;15.90;99.90;;;;;;4997058;28;20497;-86
2023/10/22 12:21:41;;;;;;;3.97;0.90;;;15.10;99.90;;;;;;4992848;28;20060;-85
2023/10/22 12:24:07;;;;;;;3.20;0.73;;;14.60;99.90;;;;;;4992292;28;20034;-87
2023/10/22 12:26:33;;;;;;;2.75;0.98;;;14.70;99.90;;;;;;4992431;28;20022;-87
2023/10/22 12:28:58;;;;;;;2.85;1.33;;;14.60;99.90;;;;;;4997597;28;20092;-86
2023/10/22 12:31:24;;;;;;;1.92;0.75;;;15.00;99.90;;;;;;5011910;28;20037;-86
2023/10/22 12:33:50;;;;;;;1.10;0.80;;;14.60;99.90;;;;;;5011374;28;20133;-84
2023/10/22 12:36:15;;;;;;;3.63;1.20;;;14.70;99.90;;;;;;5011066;28;20054;-83
2023/10/22 12:38:41;;;;;;;1.65;0.60;;;14.70;99.90;;;;;;5002585;28;20030;-85
2023/10/22 12:41:07;;;;;;;5.28;0.90;;;14.70;99.90;;;;;;5000860;28;20030;-87
2023/10/22 12:43:33;;;;;;;1.63;0.70;;;14.70;99.90;;;;;;5011605;28;20104;-87
2023/10/22 12:46:03;;;;;;;4.43;1.00;;;14.70;99.90;;;;;;5012085;28;20045;-87
2023/10/22 12:48:28;;;;;;;6.63;1.08;;;14.60;99.90;;;;;;5012290;28;20037;-87
2023/10/22 12:50:54;;;;;;;6.15;2.50;;;14.60;99.90;;;;;;5006839;28;20374;-85
2023/10/22 12:53:19;;;;;;;3.78;1.00;;;14.60;99.90;;;;;;5009863;28;20433;-90